Terminal Aerodrome Forecast
Issued by NWS

Home | Current Version | Previous Version | Text Only | Print | Product List | Glossary On
Versions: 1 2 3 4 5 6 7 8 9 10 11 12 13 14 15 16 17 18 19 20 21 22 23 24 25 26 27 28 29
000
FTPA31 PHFO 311100 RRA
TAFJRF
TAF
PHJR 311145Z 3112/0112 VRB05KT P6SM BKN050
     FM312100 18010KT P6SM FEW030 SCT050
     FM010600 VRB05KT P6SM SCT030 SCT050=

USA.gov is the U.S. government's official web portal to all federal, state and local government web resources and services.